sensor_id;sensor_type;location;lat;lon;timestamp;P1;durP1;ratioP1;P2;durP2;ratioP2
54923;SDS011;40825;52.270;20.984;2024-02-26T00:00:43;18.60;;;9.20;;
54923;SDS011;40825;52.270;20.984;2024-02-26T00:03:28;17.80;;;8.10;;
54923;SDS011;40825;52.270;20.984;2024-02-26T00:05:54;16.60;;;8.00;;
54923;SDS011;40825;52.270;20.984;2024-02-26T00:08:21;16.20;;;8.20;;
54923;SDS011;40825;52.270;20.984;2024-02-26T00:10:46;19.70;;;8.90;;
54923;SDS011;40825;52.270;20.984;2024-02-26T00:13:11;18.90;;;10.00;;
54923;SDS011;40825;52.270;20.984;2024-02-26T00:15:37;18.90;;;8.80;;
54923;SDS011;40825;52.270;20.984;2024-02-26T00:18:03;19.30;;;9.00;;
54923;SDS011;40825;52.270;20.984;2024-02-26T00:20:29;21.90;;;9.40;;
54923;SDS011;40825;52.270;20.984;2024-02-26T00:22:54;19.00;;;8.60;;
54923;SDS011;40825;52.270;20.984;2024-02-26T00:25:19;22.40;;;10.60;;
54923;SDS011;40825;52.270;20.984;2024-02-26T00:27:45;17.00;;;8.80;;
54923;SDS011;40825;52.270;20.984;2024-02-26T00:30:10;22.10;;;9.50;;
54923;SDS011;40825;52.270;20.984;2024-02-26T00:32:37;19.30;;;9.10;;
54923;SDS011;40825;52.270;20.984;2024-02-26T00:35:02;17.60;;;8.80;;
54923;SDS011;40825;52.270;20.984;2024-02-26T00:37:28;20.00;;;10.60;;
54923;SDS011;40825;52.270;20.984;2024-02-26T00:39:53;23.20;;;10.50;;
54923;SDS011;40825;52.270;20.984;2024-02-26T00:42:19;22.20;;;9.80;;
54923;SDS011;40825;52.270;20.984;2024-02-26T00:44:44;20.00;;;10.40;;
54923;SDS011;40825;52.270;20.984;2024-02-26T00:47:10;21.10;;;9.90;;
54923;SDS011;40825;52.270;20.984;2024-02-26T00:49:36;21.90;;;10.30;;
54923;SDS011;40825;52.270;20.984;2024-02-26T00:52:02;25.40;;;12.20;;
54923;SDS011;40825;52.270;20.984;2024-02-26T00:54:28;21.40;;;11.50;;
54923;SDS011;40825;52.270;20.984;2024-02-26T00:56:53;20.50;;;10.80;;
54923;SDS011;40825;52.270;20.984;2024-02-26T00:59:19;21.00;;;10.20;;
54923;SDS011;40825;52.270;20.984;2024-02-26T01:01:44;23.40;;;10.60;;
54923;SDS011;40825;52.270;20.984;2024-02-26T01:04:10;20.00;;;10.60;;
54923;SDS011;40825;52.270;20.984;2024-02-26T01:06:37;21.20;;;10.70;;
54923;SDS011;40825;52.270;20.984;2024-02-26T01:09:02;20.30;;;10.40;;
54923;SDS011;40825;52.270;20.984;2024-02-26T01:11:28;24.90;;;10.20;;
54923;SDS011;40825;52.270;20.984;2024-02-26T01:13:53;26.00;;;11.10;;
54923;SDS011;40825;52.270;20.984;2024-02-26T01:16:24;21.30;;;10.80;;
54923;SDS011;40825;52.270;20.984;2024-02-26T01:18:50;21.30;;;9.90;;
54923;SDS011;40825;52.270;20.984;2024-02-26T01:21:15;23.00;;;10.60;;
54923;SDS011;40825;52.270;20.984;2024-02-26T01:23:41;22.40;;;10.70;;
54923;SDS011;40825;52.270;20.984;2024-02-26T01:26:07;22.30;;;11.40;;
54923;SDS011;40825;52.270;20.984;2024-02-26T01:28:33;22.00;;;11.10;;
54923;SDS011;40825;52.270;20.984;2024-02-26T01:30:58;24.10;;;10.70;;
54923;SDS011;40825;52.270;20.984;2024-02-26T01:33:28;24.00;;;11.10;;
54923;SDS011;40825;52.270;20.984;2024-02-26T01:35:53;22.70;;;10.90;;
54923;SDS011;40825;52.270;20.984;2024-02-26T01:38:19;22.40;;;10.80;;
54923;SDS011;40825;52.270;20.984;2024-02-26T01:40:44;24.20;;;10.70;;
54923;SDS011;40825;52.270;20.984;2024-02-26T01:43:10;23.20;;;11.50;;
54923;SDS011;40825;52.270;20.984;2024-02-26T01:45:35;25.30;;;11.40;;
54923;SDS011;40825;52.270;20.984;2024-02-26T01:48:01;23.40;;;11.10;;
54923;SDS011;40825;52.270;20.984;2024-02-26T01:50:26;22.80;;;11.40;;
54923;SDS011;40825;52.270;20.984;2024-02-26T01:52:52;24.30;;;11.30;;
54923;SDS011;40825;52.270;20.984;2024-02-26T01:55:19;22.70;;;10.90;;
54923;SDS011;40825;52.270;20.984;2024-02-26T01:57:48;22.10;;;11.00;;
54923;SDS011;40825;52.270;20.984;2024-02-26T02:00:14;25.10;;;10.80;;
54923;SDS011;40825;52.270;20.984;2024-02-26T02:02:42;20.00;;;10.20;;
54923;SDS011;40825;52.270;20.984;2024-02-26T02:05:09;22.40;;;10.20;;
54923;SDS011;40825;52.270;20.984;2024-02-26T02:07:37;24.50;;;10.90;;
54923;SDS011;40825;52.270;20.984;2024-02-26T02:10:02;21.20;;;10.60;;
54923;SDS011;40825;52.270;20.984;2024-02-26T02:12:29;22.20;;;10.70;;
54923;SDS011;40825;52.270;20.984;2024-02-26T02:14:58;21.90;;;11.10;;
54923;SDS011;40825;52.270;20.984;2024-02-26T02:17:24;23.70;;;11.40;;
54923;SDS011;40825;52.270;20.984;2024-02-26T02:19:49;20.30;;;10.40;;
54923;SDS011;40825;52.270;20.984;2024-02-26T02:22:15;22.60;;;10.90;;
54923;SDS011;40825;52.270;20.984;2024-02-26T02:24:40;23.90;;;11.50;;
54923;SDS011;40825;52.270;20.984;2024-02-26T02:27:06;23.50;;;11.80;;
54923;SDS011;40825;52.270;20.984;2024-02-26T02:29:31;24.20;;;11.60;;
54923;SDS011;40825;52.270;20.984;2024-02-26T02:31:57;23.80;;;11.70;;
54923;SDS011;40825;52.270;20.984;2024-02-26T02:34:22;21.70;;;11.20;;
54923;SDS011;40825;52.270;20.984;2024-02-26T02:36:52;23.30;;;11.80;;
54923;SDS011;40825;52.270;20.984;2024-02-26T02:39:18;24.70;;;12.10;;
54923;SDS011;40825;52.270;20.984;2024-02-26T02:41:43;25.40;;;12.00;;
54923;SDS011;40825;52.270;20.984;2024-02-26T02:44:09;24.30;;;12.20;;
54923;SDS011;40825;52.270;20.984;2024-02-26T02:46:34;23.10;;;11.80;;
54923;SDS011;40825;52.270;20.984;2024-02-26T02:49:00;23.00;;;12.00;;
54923;SDS011;40825;52.270;20.984;2024-02-26T02:51:26;24.60;;;11.70;;
54923;SDS011;40825;52.270;20.984;2024-02-26T02:53:52;22.00;;;12.00;;
54923;SDS011;40825;52.270;20.984;2024-02-26T02:56:17;22.60;;;11.30;;
54923;SDS011;40825;52.270;20.984;2024-02-26T02:58:43;22.70;;;11.30;;
54923;SDS011;40825;52.270;20.984;2024-02-26T03:01:08;22.00;;;11.10;;
54923;SDS011;40825;52.270;20.984;2024-02-26T03:03:34;23.80;;;11.80;;
54923;SDS011;40825;52.270;20.984;2024-02-26T03:05:59;24.00;;;11.30;;
54923;SDS011;40825;52.270;20.984;2024-02-26T03:08:25;22.90;;;12.30;;
54923;SDS011;40825;52.270;20.984;2024-02-26T03:10:51;24.50;;;12.10;;
54923;SDS011;40825;52.270;20.984;2024-02-26T03:13:17;25.70;;;11.20;;
54923;SDS011;40825;52.270;20.984;2024-02-26T03:15:42;25.90;;;12.80;;
54923;SDS011;40825;52.270;20.984;2024-02-26T03:18:08;26.10;;;12.20;;
54923;SDS011;40825;52.270;20.984;2024-02-26T03:20:33;25.30;;;14.00;;
54923;SDS011;40825;52.270;20.984;2024-02-26T03:22:58;22.70;;;12.30;;
54923;SDS011;40825;52.270;20.984;2024-02-26T03:25:24;27.00;;;12.00;;
54923;SDS011;40825;52.270;20.984;2024-02-26T03:27:49;25.00;;;12.60;;
54923;SDS011;40825;52.270;20.984;2024-02-26T03:30:15;24.30;;;12.90;;
54923;SDS011;40825;52.270;20.984;2024-02-26T03:32:41;29.50;;;12.10;;
54923;SDS011;40825;52.270;20.984;2024-02-26T03:35:06;26.90;;;12.80;;
54923;SDS011;40825;52.270;20.984;2024-02-26T03:37:33;27.00;;;13.20;;
54923;SDS011;40825;52.270;20.984;2024-02-26T03:39:58;24.80;;;11.60;;
54923;SDS011;40825;52.270;20.984;2024-02-26T03:42:26;24.40;;;11.80;;
54923;SDS011;40825;52.270;20.984;2024-02-26T03:44:52;25.80;;;12.10;;
54923;SDS011;40825;52.270;20.984;2024-02-26T03:47:17;24.60;;;11.70;;
54923;SDS011;40825;52.270;20.984;2024-02-26T03:49:43;25.30;;;12.40;;
54923;SDS011;40825;52.270;20.984;2024-02-26T03:52:08;23.90;;;12.10;;
54923;SDS011;40825;52.270;20.984;2024-02-26T03:54:34;25.50;;;12.60;;
54923;SDS011;40825;52.270;20.984;2024-02-26T03:56:59;26.10;;;12.40;;
54923;SDS011;40825;52.270;20.984;2024-02-26T03:59:25;23.60;;;11.90;;
54923;SDS011;40825;52.270;20.984;2024-02-26T04:01:51;22.90;;;11.80;;
54923;SDS011;40825;52.270;20.984;2024-02-26T04:04:17;22.70;;;11.60;;
54923;SDS011;40825;52.270;20.984;2024-02-26T04:06:45;25.50;;;12.40;;
54923;SDS011;40825;52.270;20.984;2024-02-26T04:09:13;28.00;;;12.00;;
54923;SDS011;40825;52.270;20.984;2024-02-26T04:11:39;26.80;;;13.40;;
54923;SDS011;40825;52.270;20.984;2024-02-26T04:14:05;27.00;;;12.00;;
54923;SDS011;40825;52.270;20.984;2024-02-26T04:16:34;23.40;;;12.10;;
54923;SDS011;40825;52.270;20.984;2024-02-26T04:19:01;24.20;;;12.90;;
54923;SDS011;40825;52.270;20.984;2024-02-26T04:21:26;25.60;;;11.60;;
54923;SDS011;40825;52.270;20.984;2024-02-26T04:23:52;26.30;;;13.80;;
54923;SDS011;40825;52.270;20.984;2024-02-26T04:26:20;23.80;;;12.00;;
54923;SDS011;40825;52.270;20.984;2024-02-26T04:28:46;25.00;;;11.90;;
54923;SDS011;40825;52.270;20.984;2024-02-26T04:31:12;25.60;;;11.70;;
54923;SDS011;40825;52.270;20.984;2024-02-26T04:33:38;25.30;;;11.50;;
54923;SDS011;40825;52.270;20.984;2024-02-26T04:36:03;21.60;;;11.10;;
54923;SDS011;40825;52.270;20.984;2024-02-26T04:38:29;26.10;;;12.90;;
54923;SDS011;40825;52.270;20.984;2024-02-26T04:40:55;28.30;;;14.20;;
54923;SDS011;40825;52.270;20.984;2024-02-26T04:43:20;23.60;;;13.10;;
54923;SDS011;40825;52.270;20.984;2024-02-26T04:45:46;21.70;;;10.50;;
54923;SDS011;40825;52.270;20.984;2024-02-26T04:48:11;20.80;;;10.40;;
54923;SDS011;40825;52.270;20.984;2024-02-26T04:50:37;23.10;;;10.90;;
54923;SDS011;40825;52.270;20.984;2024-02-26T04:53:02;23.90;;;11.90;;
54923;SDS011;40825;52.270;20.984;2024-02-26T04:55:28;24.60;;;12.20;;
54923;SDS011;40825;52.270;20.984;2024-02-26T04:57:53;27.80;;;13.20;;
54923;SDS011;40825;52.270;20.984;2024-02-26T05:00:19;27.40;;;12.70;;
54923;SDS011;40825;52.270;20.984;2024-02-26T05:05:32;26.90;;;11.90;;
54923;SDS011;40825;52.270;20.984;2024-02-26T05:07:57;26.10;;;12.50;;
54923;SDS011;40825;52.270;20.984;2024-02-26T05:10:23;26.50;;;12.40;;
54923;SDS011;40825;52.270;20.984;2024-02-26T05:12:48;26.10;;;14.00;;
54923;SDS011;40825;52.270;20.984;2024-02-26T05:15:14;26.10;;;12.10;;
54923;SDS011;40825;52.270;20.984;2024-02-26T05:17:43;25.50;;;12.80;;
54923;SDS011;40825;52.270;20.984;2024-02-26T05:20:10;29.10;;;12.70;;
54923;SDS011;40825;52.270;20.984;2024-02-26T05:22:36;27.00;;;13.00;;
54923;SDS011;40825;52.270;20.984;2024-02-26T05:25:02;27.60;;;13.00;;
54923;SDS011;40825;52.270;20.984;2024-02-26T05:27:28;25.70;;;13.80;;
54923;SDS011;40825;52.270;20.984;2024-02-26T05:29:54;25.90;;;12.60;;
54923;SDS011;40825;52.270;20.984;2024-02-26T05:32:19;26.00;;;13.60;;
54923;SDS011;40825;52.270;20.984;2024-02-26T05:34:45;26.80;;;13.50;;
54923;SDS011;40825;52.270;20.984;2024-02-26T05:37:10;26.90;;;14.50;;
54923;SDS011;40825;52.270;20.984;2024-02-26T05:39:36;25.40;;;12.50;;
54923;SDS011;40825;52.270;20.984;2024-02-26T05:42:02;24.00;;;11.60;;
54923;SDS011;40825;52.270;20.984;2024-02-26T05:44:28;28.60;;;13.70;;
54923;SDS011;40825;52.270;20.984;2024-02-26T05:46:54;29.60;;;14.00;;
54923;SDS011;40825;52.270;20.984;2024-02-26T05:49:19;23.50;;;12.70;;
54923;SDS011;40825;52.270;20.984;2024-02-26T05:51:45;27.70;;;13.10;;
54923;SDS011;40825;52.270;20.984;2024-02-26T05:54:10;30.80;;;13.70;;
54923;SDS011;40825;52.270;20.984;2024-02-26T05:56:36;25.50;;;14.30;;
54923;SDS011;40825;52.270;20.984;2024-02-26T05:59:02;26.80;;;12.00;;
54923;SDS011;40825;52.270;20.984;2024-02-26T06:01:27;25.10;;;12.10;;
54923;SDS011;40825;52.270;20.984;2024-02-26T06:03:53;28.50;;;12.90;;
54923;SDS011;40825;52.270;20.984;2024-02-26T06:06:18;24.60;;;11.60;;
54923;SDS011;40825;52.270;20.984;2024-02-26T06:08:44;26.30;;;14.00;;
54923;SDS011;40825;52.270;20.984;2024-02-26T06:11:09;24.50;;;12.30;;
54923;SDS011;40825;52.270;20.984;2024-02-26T06:13:35;25.80;;;13.60;;
54923;SDS011;40825;52.270;20.984;2024-02-26T06:16:01;26.00;;;13.30;;
54923;SDS011;40825;52.270;20.984;2024-02-26T06:18:27;29.10;;;14.40;;
54923;SDS011;40825;52.270;20.984;2024-02-26T06:20:53;29.80;;;15.20;;
54923;SDS011;40825;52.270;20.984;2024-02-26T06:23:18;25.80;;;13.00;;
54923;SDS011;40825;52.270;20.984;2024-02-26T06:25:43;30.50;;;14.50;;
54923;SDS011;40825;52.270;20.984;2024-02-26T06:28:09;26.90;;;13.90;;
54923;SDS011;40825;52.270;20.984;2024-02-26T06:30:34;33.30;;;15.50;;
54923;SDS011;40825;52.270;20.984;2024-02-26T06:33:01;30.90;;;14.50;;
54923;SDS011;40825;52.270;20.984;2024-02-26T06:35:26;26.50;;;13.60;;
54923;SDS011;40825;52.270;20.984;2024-02-26T06:37:52;31.00;;;14.10;;
54923;SDS011;40825;52.270;20.984;2024-02-26T06:40:21;27.60;;;13.50;;
54923;SDS011;40825;52.270;20.984;2024-02-26T06:42:47;29.60;;;13.70;;
54923;SDS011;40825;52.270;20.984;2024-02-26T06:45:12;28.70;;;13.00;;
54923;SDS011;40825;52.270;20.984;2024-02-26T06:47:38;34.40;;;13.30;;
54923;SDS011;40825;52.270;20.984;2024-02-26T06:50:03;29.60;;;14.40;;
54923;SDS011;40825;52.270;20.984;2024-02-26T06:52:29;33.50;;;14.70;;
54923;SDS011;40825;52.270;20.984;2024-02-26T06:54:54;28.90;;;15.20;;
54923;SDS011;40825;52.270;20.984;2024-02-26T06:57:20;31.70;;;14.40;;
54923;SDS011;40825;52.270;20.984;2024-02-26T06:59:45;28.60;;;15.20;;
54923;SDS011;40825;52.270;20.984;2024-02-26T07:02:15;29.20;;;14.90;;
54923;SDS011;40825;52.270;20.984;2024-02-26T07:04:41;28.70;;;14.20;;
54923;SDS011;40825;52.270;20.984;2024-02-26T07:07:08;25.00;;;13.80;;
54923;SDS011;40825;52.270;20.984;2024-02-26T07:09:33;23.40;;;13.70;;
54923;SDS011;40825;52.270;20.984;2024-02-26T07:11:59;26.30;;;13.40;;
54923;SDS011;40825;52.270;20.984;2024-02-26T07:14:24;25.50;;;13.40;;
54923;SDS011;40825;52.270;20.984;2024-02-26T07:16:50;22.00;;;12.40;;
54923;SDS011;40825;52.270;20.984;2024-02-26T07:19:16;24.10;;;11.90;;
54923;SDS011;40825;52.270;20.984;2024-02-26T07:21:41;22.40;;;11.60;;
54923;SDS011;40825;52.270;20.984;2024-02-26T07:24:07;22.20;;;11.30;;
54923;SDS011;40825;52.270;20.984;2024-02-26T07:26:32;25.00;;;12.00;;
54923;SDS011;40825;52.270;20.984;2024-02-26T07:28:57;21.80;;;12.50;;
54923;SDS011;40825;52.270;20.984;2024-02-26T07:31:23;23.00;;;12.70;;
54923;SDS011;40825;52.270;20.984;2024-02-26T07:33:49;20.20;;;11.70;;
54923;SDS011;40825;52.270;20.984;2024-02-26T07:36:14;21.10;;;11.70;;
54923;SDS011;40825;52.270;20.984;2024-02-26T07:38:40;19.60;;;10.50;;
54923;SDS011;40825;52.270;20.984;2024-02-26T07:41:05;22.60;;;12.00;;
54923;SDS011;40825;52.270;20.984;2024-02-26T07:43:31;18.10;;;10.60;;
54923;SDS011;40825;52.270;20.984;2024-02-26T07:45:57;20.40;;;11.00;;
54923;SDS011;40825;52.270;20.984;2024-02-26T07:48:23;24.50;;;12.90;;
54923;SDS011;40825;52.270;20.984;2024-02-26T07:50:48;20.20;;;11.30;;
54923;SDS011;40825;52.270;20.984;2024-02-26T07:53:14;21.10;;;11.30;;
54923;SDS011;40825;52.270;20.984;2024-02-26T07:55:39;20.70;;;12.60;;
54923;SDS011;40825;52.270;20.984;2024-02-26T07:58:05;25.00;;;12.10;;
54923;SDS011;40825;52.270;20.984;2024-02-26T08:00:30;21.60;;;11.20;;
54923;SDS011;40825;52.270;20.984;2024-02-26T08:02:56;19.30;;;11.40;;
54923;SDS011;40825;52.270;20.984;2024-02-26T08:05:21;22.20;;;11.50;;
54923;SDS011;40825;52.270;20.984;2024-02-26T08:07:46;21.40;;;11.00;;
54923;SDS011;40825;52.270;20.984;2024-02-26T08:10:12;19.80;;;11.40;;
54923;SDS011;40825;52.270;20.984;2024-02-26T08:12:38;20.10;;;10.90;;
54923;SDS011;40825;52.270;20.984;2024-02-26T08:15:04;19.00;;;10.00;;
54923;SDS011;40825;52.270;20.984;2024-02-26T08:17:30;17.70;;;8.80;;
54923;SDS011;40825;52.270;20.984;2024-02-26T08:19:58;15.50;;;9.80;;
54923;SDS011;40825;52.270;20.984;2024-02-26T08:22:24;16.10;;;9.30;;
54923;SDS011;40825;52.270;20.984;2024-02-26T08:24:50;16.90;;;9.80;;
54923;SDS011;40825;52.270;20.984;2024-02-26T08:27:15;18.20;;;9.40;;
54923;SDS011;40825;52.270;20.984;2024-02-26T08:29:41;17.60;;;9.30;;
54923;SDS011;40825;52.270;20.984;2024-02-26T08:32:06;17.90;;;10.30;;
54923;SDS011;40825;52.270;20.984;2024-02-26T08:34:32;18.10;;;9.90;;
54923;SDS011;40825;52.270;20.984;2024-02-26T08:36:58;18.60;;;9.60;;
54923;SDS011;40825;52.270;20.984;2024-02-26T08:39:23;17.80;;;9.90;;
54923;SDS011;40825;52.270;20.984;2024-02-26T08:41:49;20.40;;;10.20;;
54923;SDS011;40825;52.270;20.984;2024-02-26T08:44:15;15.40;;;10.00;;
54923;SDS011;40825;52.270;20.984;2024-02-26T08:46:41;16.00;;;9.80;;
54923;SDS011;40825;52.270;20.984;2024-02-26T08:49:06;20.90;;;11.00;;
54923;SDS011;40825;52.270;20.984;2024-02-26T08:51:32;16.80;;;10.90;;
54923;SDS011;40825;52.270;20.984;2024-02-26T08:53:57;18.40;;;10.90;;
54923;SDS011;40825;52.270;20.984;2024-02-26T08:56:22;19.50;;;11.30;;
54923;SDS011;40825;52.270;20.984;2024-02-26T08:58:48;18.10;;;10.90;;
54923;SDS011;40825;52.270;20.984;2024-02-26T09:01:16;18.20;;;10.40;;
54923;SDS011;40825;52.270;20.984;2024-02-26T09:03:41;18.80;;;11.10;;
54923;SDS011;40825;52.270;20.984;2024-02-26T09:06:07;21.80;;;11.20;;
54923;SDS011;40825;52.270;20.984;2024-02-26T09:08:32;18.50;;;11.20;;
54923;SDS011;40825;52.270;20.984;2024-02-26T09:10:58;18.20;;;10.30;;
54923;SDS011;40825;52.270;20.984;2024-02-26T09:13:24;18.40;;;11.40;;
54923;SDS011;40825;52.270;20.984;2024-02-26T09:15:49;17.80;;;10.90;;
54923;SDS011;40825;52.270;20.984;2024-02-26T09:18:15;17.60;;;10.70;;
54923;SDS011;40825;52.270;20.984;2024-02-26T09:20:41;19.80;;;11.60;;
54923;SDS011;40825;52.270;20.984;2024-02-26T09:23:06;18.80;;;11.10;;
54923;SDS011;40825;52.270;20.984;2024-02-26T09:25:32;20.00;;;12.10;;
54923;SDS011;40825;52.270;20.984;2024-02-26T09:27:58;20.70;;;11.50;;
54923;SDS011;40825;52.270;20.984;2024-02-26T09:30:24;19.00;;;10.10;;
54923;SDS011;40825;52.270;20.984;2024-02-26T09:32:50;17.70;;;11.30;;
54923;SDS011;40825;52.270;20.984;2024-02-26T09:35:15;18.30;;;10.20;;
54923;SDS011;40825;52.270;20.984;2024-02-26T09:37:41;16.80;;;10.30;;
54923;SDS011;40825;52.270;20.984;2024-02-26T09:40:09;17.00;;;10.70;;
54923;SDS011;40825;52.270;20.984;2024-02-26T09:42:38;18.20;;;10.20;;
54923;SDS011;40825;52.270;20.984;2024-02-26T09:45:10;15.30;;;10.20;;
54923;SDS011;40825;52.270;20.984;2024-02-26T09:47:42;17.50;;;9.70;;
54923;SDS011;40825;52.270;20.984;2024-02-26T09:50:09;16.80;;;11.50;;
54923;SDS011;40825;52.270;20.984;2024-02-26T09:52:38;17.20;;;10.40;;
54923;SDS011;40825;52.270;20.984;2024-02-26T09:57:34;17.90;;;10.50;;
54923;SDS011;40825;52.270;20.984;2024-02-26T10:00:02;16.80;;;10.00;;
54923;SDS011;40825;52.270;20.984;2024-02-26T10:02:33;16.20;;;9.60;;
54923;SDS011;40825;52.270;20.984;2024-02-26T10:05:02;17.60;;;10.40;;
54923;SDS011;40825;52.270;20.984;2024-02-26T10:07:30;16.90;;;10.20;;
54923;SDS011;40825;52.270;20.984;2024-02-26T10:09:56;16.30;;;9.60;;
54923;SDS011;40825;52.270;20.984;2024-02-26T10:12:21;15.80;;;8.90;;
54923;SDS011;40825;52.270;20.984;2024-02-26T10:14:51;16.30;;;10.70;;
54923;SDS011;40825;52.270;20.984;2024-02-26T10:17:16;16.60;;;9.80;;
54923;SDS011;40825;52.270;20.984;2024-02-26T10:19:44;15.30;;;9.60;;
54923;SDS011;40825;52.270;20.984;2024-02-26T10:22:09;16.00;;;10.30;;
54923;SDS011;40825;52.270;20.984;2024-02-26T10:24:35;15.20;;;9.40;;
54923;SDS011;40825;52.270;20.984;2024-02-26T10:27:01;16.10;;;10.00;;
54923;SDS011;40825;52.270;20.984;2024-02-26T10:29:27;15.60;;;9.90;;
54923;SDS011;40825;52.270;20.984;2024-02-26T10:31:52;16.10;;;9.80;;
54923;SDS011;40825;52.270;20.984;2024-02-26T10:34:18;15.70;;;10.60;;
54923;SDS011;40825;52.270;20.984;2024-02-26T10:36:45;15.80;;;9.40;;
54923;SDS011;40825;52.270;20.984;2024-02-26T10:39:13;17.30;;;10.90;;
54923;SDS011;40825;52.270;20.984;2024-02-26T10:41:40;16.30;;;9.90;;
54923;SDS011;40825;52.270;20.984;2024-02-26T10:44:08;18.50;;;10.60;;
54923;SDS011;40825;52.270;20.984;2024-02-26T10:46:36;16.30;;;9.60;;
54923;SDS011;40825;52.270;20.984;2024-02-26T10:49:02;16.10;;;9.40;;
54923;SDS011;40825;52.270;20.984;2024-02-26T10:51:28;17.20;;;10.20;;
54923;SDS011;40825;52.270;20.984;2024-02-26T10:53:56;15.50;;;10.40;;
54923;SDS011;40825;52.270;20.984;2024-02-26T10:56:27;17.30;;;10.20;;
54923;SDS011;40825;52.270;20.984;2024-02-26T10:58:57;18.10;;;10.90;;
54923;SDS011;40825;52.270;20.984;2024-02-26T11:01:24;18.90;;;11.30;;
54923;SDS011;40825;52.270;20.984;2024-02-26T11:03:51;15.90;;;9.40;;
54923;SDS011;40825;52.270;20.984;2024-02-26T11:06:21;13.90;;;9.30;;
54923;SDS011;40825;52.270;20.984;2024-02-26T11:08:48;14.80;;;9.00;;
54923;SDS011;40825;52.270;20.984;2024-02-26T11:11:15;15.10;;;10.00;;
54923;SDS011;40825;52.270;20.984;2024-02-26T11:13:42;14.90;;;8.80;;
54923;SDS011;40825;52.270;20.984;2024-02-26T11:16:15;13.50;;;7.90;;
54923;SDS011;40825;52.270;20.984;2024-02-26T11:18:43;12.80;;;6.70;;
54923;SDS011;40825;52.270;20.984;2024-02-26T11:21:14;11.50;;;6.20;;
54923;SDS011;40825;52.270;20.984;2024-02-26T11:23:41;11.40;;;6.60;;
54923;SDS011;40825;52.270;20.984;2024-02-26T11:26:07;11.60;;;7.00;;
54923;SDS011;40825;52.270;20.984;2024-02-26T11:28:36;11.90;;;7.10;;
54923;SDS011;40825;52.270;20.984;2024-02-26T11:31:02;10.90;;;7.10;;
54923;SDS011;40825;52.270;20.984;2024-02-26T11:33:29;10.70;;;6.70;;
54923;SDS011;40825;52.270;20.984;2024-02-26T11:35:55;12.60;;;6.30;;
54923;SDS011;40825;52.270;20.984;2024-02-26T11:38:21;9.10;;;5.40;;
54923;SDS011;40825;52.270;20.984;2024-02-26T11:40:49;10.60;;;6.00;;
54923;SDS011;40825;52.270;20.984;2024-02-26T11:43:15;10.20;;;5.70;;
54923;SDS011;40825;52.270;20.984;2024-02-26T11:48:15;10.70;;;6.20;;
54923;SDS011;40825;52.270;20.984;2024-02-26T11:50:45;9.80;;;6.00;;
54923;SDS011;40825;52.270;20.984;2024-02-26T11:58:53;10.20;;;5.90;;
54923;SDS011;40825;52.270;20.984;2024-02-26T12:06:47;10.40;;;5.50;;
54923;SDS011;40825;52.270;20.984;2024-02-26T12:12:03;8.60;;;4.60;;
54923;SDS011;40825;52.270;20.984;2024-02-26T12:14:39;11.50;;;5.00;;
54923;SDS011;40825;52.270;20.984;2024-02-26T12:17:19;9.30;;;5.10;;
54923;SDS011;40825;52.270;20.984;2024-02-26T12:19:49;9.20;;;5.10;;
54923;SDS011;40825;52.270;20.984;2024-02-26T12:22:16;10.20;;;4.90;;
54923;SDS011;40825;52.270;20.984;2024-02-26T12:24:42;8.80;;;4.60;;
54923;SDS011;40825;52.270;20.984;2024-02-26T12:27:09;8.20;;;4.80;;
54923;SDS011;40825;52.270;20.984;2024-02-26T12:29:34;9.00;;;4.80;;
54923;SDS011;40825;52.270;20.984;2024-02-26T12:32:00;8.20;;;4.60;;
54923;SDS011;40825;52.270;20.984;2024-02-26T12:34:26;9.30;;;4.50;;
54923;SDS011;40825;52.270;20.984;2024-02-26T12:36:53;9.40;;;4.80;;
54923;SDS011;40825;52.270;20.984;2024-02-26T12:39:19;8.50;;;4.30;;
54923;SDS011;40825;52.270;20.984;2024-02-26T12:41:46;9.90;;;5.30;;
54923;SDS011;40825;52.270;20.984;2024-02-26T12:44:18;7.90;;;4.10;;
54923;SDS011;40825;52.270;20.984;2024-02-26T12:46:49;9.80;;;4.70;;
54923;SDS011;40825;52.270;20.984;2024-02-26T12:49:15;9.40;;;5.20;;
54923;SDS011;40825;52.270;20.984;2024-02-26T12:51:43;8.50;;;4.70;;
54923;SDS011;40825;52.270;20.984;2024-02-26T12:54:10;8.40;;;3.80;;
54923;SDS011;40825;52.270;20.984;2024-02-26T12:56:36;9.10;;;4.00;;
54923;SDS011;40825;52.270;20.984;2024-02-26T12:59:02;7.20;;;4.00;;
54923;SDS011;40825;52.270;20.984;2024-02-26T13:01:28;7.60;;;4.00;;
54923;SDS011;40825;52.270;20.984;2024-02-26T13:03:55;7.10;;;3.40;;
54923;SDS011;40825;52.270;20.984;2024-02-26T13:06:21;6.10;;;3.80;;
54923;SDS011;40825;52.270;20.984;2024-02-26T13:08:48;8.10;;;4.40;;
54923;SDS011;40825;52.270;20.984;2024-02-26T13:11:14;8.40;;;4.00;;
54923;SDS011;40825;52.270;20.984;2024-02-26T13:13:40;6.60;;;3.50;;
54923;SDS011;40825;52.270;20.984;2024-02-26T13:38:06;5.80;;;2.70;;
54923;SDS011;40825;52.270;20.984;2024-02-26T13:40:32;5.80;;;3.00;;
54923;SDS011;40825;52.270;20.984;2024-02-26T13:42:59;6.20;;;3.10;;
54923;SDS011;40825;52.270;20.984;2024-02-26T13:45:25;5.00;;;2.40;;
54923;SDS011;40825;52.270;20.984;2024-02-26T13:47:51;6.40;;;2.70;;
54923;SDS011;40825;52.270;20.984;2024-02-26T13:50:16;4.60;;;2.90;;
54923;SDS011;40825;52.270;20.984;2024-02-26T13:52:46;5.00;;;2.10;;
54923;SDS011;40825;52.270;20.984;2024-02-26T13:55:12;5.30;;;2.10;;
54923;SDS011;40825;52.270;20.984;2024-02-26T13:57:39;4.90;;;2.40;;
54923;SDS011;40825;52.270;20.984;2024-02-26T14:00:05;5.40;;;2.20;;
54923;SDS011;40825;52.270;20.984;2024-02-26T14:02:32;5.40;;;1.80;;
54923;SDS011;40825;52.270;20.984;2024-02-26T14:05:01;5.50;;;2.00;;
54923;SDS011;40825;52.270;20.984;2024-02-26T14:07:30;4.50;;;2.20;;
54923;SDS011;40825;52.270;20.984;2024-02-26T14:12:24;5.80;;;2.10;;
54923;SDS011;40825;52.270;20.984;2024-02-26T14:14:49;5.20;;;2.00;;
54923;SDS011;40825;52.270;20.984;2024-02-26T14:17:15;4.70;;;1.90;;
54923;SDS011;40825;52.270;20.984;2024-02-26T14:19:44;4.40;;;2.00;;
54923;SDS011;40825;52.270;20.984;2024-02-26T14:22:13;5.40;;;2.60;;
54923;SDS011;40825;52.270;20.984;2024-02-26T14:24:41;4.60;;;1.90;;
54923;SDS011;40825;52.270;20.984;2024-02-26T14:27:10;3.90;;;2.10;;
54923;SDS011;40825;52.270;20.984;2024-02-26T14:29:42;6.80;;;2.40;;
54923;SDS011;40825;52.270;20.984;2024-02-26T14:32:09;5.20;;;1.80;;
54923;SDS011;40825;52.270;20.984;2024-02-26T14:34:35;5.60;;;2.30;;
54923;SDS011;40825;52.270;20.984;2024-02-26T14:37:00;5.00;;;2.40;;
54923;SDS011;40825;52.270;20.984;2024-02-26T14:39:26;5.10;;;2.00;;
54923;SDS011;40825;52.270;20.984;2024-02-26T14:41:51;4.90;;;2.20;;
54923;SDS011;40825;52.270;20.984;2024-02-26T14:44:17;6.20;;;2.50;;
54923;SDS011;40825;52.270;20.984;2024-02-26T14:46:42;6.90;;;2.70;;
54923;SDS011;40825;52.270;20.984;2024-02-26T14:49:08;5.10;;;2.30;;
54923;SDS011;40825;52.270;20.984;2024-02-26T14:51:34;6.60;;;2.30;;
54923;SDS011;40825;52.270;20.984;2024-02-26T14:53:59;5.50;;;2.10;;
54923;SDS011;40825;52.270;20.984;2024-02-26T14:56:27;8.50;;;2.60;;